sensor_id;sensor_type;location;lat;lon;timestamp;temperature;humidity
29031;DHT22;16122;50.236;11.734;2024-03-23T00:55:41;16.70;81.20
29031;DHT22;16122;50.236;11.734;2024-03-23T00:58:07;16.80;81.20
29031;DHT22;16122;50.236;11.734;2024-03-23T01:00:33;16.80;80.90
29031;DHT22;16122;50.236;11.734;2024-03-23T01:02:59;16.80;81.20
29031;DHT22;16122;50.236;11.734;2024-03-23T01:05:24;16.90;81.20
29031;DHT22;16122;50.236;11.734;2024-03-23T01:07:50;16.80;81.00
29031;DHT22;16122;50.236;11.734;2024-03-23T01:10:16;16.80;80.90
29031;DHT22;16122;50.236;11.734;2024-03-23T01:12:42;16.80;80.90
29031;DHT22;16122;50.236;11.734;2024-03-23T01:15:09;16.80;81.00
29031;DHT22;16122;50.236;11.734;2024-03-23T01:17:35;16.80;80.80
29031;DHT22;16122;50.236;11.734;2024-03-23T01:20:01;16.90;80.90
29031;DHT22;16122;50.236;11.734;2024-03-23T01:22:27;16.80;80.70
29031;DHT22;16122;50.236;11.734;2024-03-23T01:24:53;16.80;80.60
29031;DHT22;16122;50.236;11.734;2024-03-23T01:27:19;16.80;80.00
29031;DHT22;16122;50.236;11.734;2024-03-23T01:29:44;16.80;79.90
29031;DHT22;16122;50.236;11.734;2024-03-23T01:32:10;16.80;79.50
29031;DHT22;16122;50.236;11.734;2024-03-23T01:34:36;16.90;79.60
29031;DHT22;16122;50.236;11.734;2024-03-23T01:37:02;16.80;79.40
29031;DHT22;16122;50.236;11.734;2024-03-23T01:39:28;16.90;79.50
29031;DHT22;16122;50.236;11.734;2024-03-23T01:41:53;16.80;79.50
29031;DHT22;16122;50.236;11.734;2024-03-23T01:44:19;16.80;79.40
29031;DHT22;16122;50.236;11.734;2024-03-23T01:46:45;16.80;79.30
29031;DHT22;16122;50.236;11.734;2024-03-23T01:49:11;16.80;79.40
29031;DHT22;16122;50.236;11.734;2024-03-23T01:51:37;16.80;79.30
29031;DHT22;16122;50.236;11.734;2024-03-23T01:54:04;16.80;79.20
29031;DHT22;16122;50.236;11.734;2024-03-23T01:56:31;16.90;79.30
29031;DHT22;16122;50.236;11.734;2024-03-23T01:58:58;16.80;79.10
29031;DHT22;16122;50.236;11.734;2024-03-23T02:01:24;16.80;79.00
29031;DHT22;16122;50.236;11.734;2024-03-23T02:03:50;16.80;79.10
29031;DHT22;16122;50.236;11.734;2024-03-23T02:06:16;16.90;79.20
29031;DHT22;16122;50.236;11.734;2024-03-23T02:08:43;16.80;78.90
29031;DHT22;16122;50.236;11.734;2024-03-23T02:11:09;16.90;78.90
29031;DHT22;16122;50.236;11.734;2024-03-23T02:13:35;17.00;78.90
29031;DHT22;16122;50.236;11.734;2024-03-23T02:16:01;16.90;78.80
29031;DHT22;16122;50.236;11.734;2024-03-23T02:18:26;17.00;78.80
29031;DHT22;16122;50.236;11.734;2024-03-23T02:20:53;16.90;78.90
29031;DHT22;16122;50.236;11.734;2024-03-23T02:23:19;16.80;78.90
29031;DHT22;16122;50.236;11.734;2024-03-23T02:25:45;16.90;79.10
29031;DHT22;16122;50.236;11.734;2024-03-23T02:28:11;16.90;78.90
29031;DHT22;16122;50.236;11.734;2024-03-23T02:30:37;17.00;79.20
29031;DHT22;16122;50.236;11.734;2024-03-23T02:33:03;17.00;79.20
29031;DHT22;16122;50.236;11.734;2024-03-23T02:35:30;16.80;78.70
29031;DHT22;16122;50.236;11.734;2024-03-23T02:37:56;16.90;79.00
29031;DHT22;16122;50.236;11.734;2024-03-23T02:40:23;16.90;78.90
29031;DHT22;16122;50.236;11.734;2024-03-23T02:42:50;16.90;79.10
29031;DHT22;16122;50.236;11.734;2024-03-23T02:45:16;16.90;79.10
29031;DHT22;16122;50.236;11.734;2024-03-23T02:47:41;17.00;79.20
29031;DHT22;16122;50.236;11.734;2024-03-23T02:50:08;16.90;79.10
29031;DHT22;16122;50.236;11.734;2024-03-23T02:52:35;17.00;79.10
29031;DHT22;16122;50.236;11.734;2024-03-23T02:55:01;16.90;79.00
29031;DHT22;16122;50.236;11.734;2024-03-23T02:57:30;17.00;79.10
29031;DHT22;16122;50.236;11.734;2024-03-23T02:59:56;17.00;79.00
29031;DHT22;16122;50.236;11.734;2024-03-23T03:02:22;16.90;79.00
29031;DHT22;16122;50.236;11.734;2024-03-23T03:04:48;16.90;79.10
29031;DHT22;16122;50.236;11.734;2024-03-23T03:07:14;16.90;78.90
29031;DHT22;16122;50.236;11.734;2024-03-23T03:09:40;17.00;79.00
29031;DHT22;16122;50.236;11.734;2024-03-23T03:12:06;16.90;78.70
29031;DHT22;16122;50.236;11.734;2024-03-23T03:14:32;16.90;78.70
29031;DHT22;16122;50.236;11.734;2024-03-23T03:16:58;17.00;78.70
29031;DHT22;16122;50.236;11.734;2024-03-23T03:19:24;16.90;78.80
29031;DHT22;16122;50.236;11.734;2024-03-23T03:21:49;17.10;79.20
29031;DHT22;16122;50.236;11.734;2024-03-23T03:24:15;16.90;78.80
29031;DHT22;16122;50.236;11.734;2024-03-23T03:26:41;16.90;79.00
29031;DHT22;16122;50.236;11.734;2024-03-23T03:29:07;16.90;78.80
29031;DHT22;16122;50.236;11.734;2024-03-23T03:31:33;17.00;78.70
29031;DHT22;16122;50.236;11.734;2024-03-23T03:33:59;17.00;78.80
29031;DHT22;16122;50.236;11.734;2024-03-23T03:36:25;16.90;78.70
29031;DHT22;16122;50.236;11.734;2024-03-23T03:38:51;17.00;78.80
29031;DHT22;16122;50.236;11.734;2024-03-23T03:41:17;16.90;78.60
29031;DHT22;16122;50.236;11.734;2024-03-23T03:43:43;17.00;78.60
29031;DHT22;16122;50.236;11.734;2024-03-23T03:46:09;16.90;78.60
29031;DHT22;16122;50.236;11.734;2024-03-23T03:48:35;16.90;78.60
29031;DHT22;16122;50.236;11.734;2024-03-23T03:51:01;17.10;78.90
29031;DHT22;16122;50.236;11.734;2024-03-23T03:53:27;16.90;78.70
29031;DHT22;16122;50.236;11.734;2024-03-23T03:55:53;16.90;78.70
29031;DHT22;16122;50.236;11.734;2024-03-23T03:58:18;16.90;78.60
29031;DHT22;16122;50.236;11.734;2024-03-23T04:00:44;17.00;78.80
29031;DHT22;16122;50.236;11.734;2024-03-23T04:03:10;17.00;78.70
29031;DHT22;16122;50.236;11.734;2024-03-23T04:05:36;16.90;78.50
29031;DHT22;16122;50.236;11.734;2024-03-23T04:08:03;16.90;78.60
29031;DHT22;16122;50.236;11.734;2024-03-23T04:10:30;17.00;78.70
29031;DHT22;16122;50.236;11.734;2024-03-23T04:12:56;16.90;78.70
29031;DHT22;16122;50.236;11.734;2024-03-23T04:15:22;17.00;78.70
29031;DHT22;16122;50.236;11.734;2024-03-23T04:17:48;16.90;78.60
29031;DHT22;16122;50.236;11.734;2024-03-23T04:20:13;16.90;78.50
29031;DHT22;16122;50.236;11.734;2024-03-23T04:22:43;16.90;78.40
29031;DHT22;16122;50.236;11.734;2024-03-23T04:25:08;17.10;78.70
29031;DHT22;16122;50.236;11.734;2024-03-23T04:27:39;16.90;78.60
29031;DHT22;16122;50.236;11.734;2024-03-23T04:30:05;17.00;78.60
29031;DHT22;16122;50.236;11.734;2024-03-23T04:32:36;17.10;78.40
29031;DHT22;16122;50.236;11.734;2024-03-23T04:35:02;17.00;78.30
29031;DHT22;16122;50.236;11.734;2024-03-23T04:37:47;17.10;78.50
29031;DHT22;16122;50.236;11.734;2024-03-23T04:40:13;17.00;78.40
29031;DHT22;16122;50.236;11.734;2024-03-23T04:42:40;16.90;78.40
29031;DHT22;16122;50.236;11.734;2024-03-23T04:45:06;17.00;78.70
29031;DHT22;16122;50.236;11.734;2024-03-23T04:47:32;17.00;78.80
29031;DHT22;16122;50.236;11.734;2024-03-23T04:50:03;17.00;78.60
29031;DHT22;16122;50.236;11.734;2024-03-23T04:52:29;17.10;78.70
29031;DHT22;16122;50.236;11.734;2024-03-23T04:54:55;17.10;78.80
29031;DHT22;16122;50.236;11.734;2024-03-23T04:57:21;17.00;78.70
29031;DHT22;16122;50.236;11.734;2024-03-23T04:59:48;17.10;78.90
29031;DHT22;16122;50.236;11.734;2024-03-23T05:02:14;17.10;78.80
29031;DHT22;16122;50.236;11.734;2024-03-23T05:04:41;17.00;78.70
29031;DHT22;16122;50.236;11.734;2024-03-23T05:07:07;17.00;78.70
29031;DHT22;16122;50.236;11.734;2024-03-23T05:09:33;16.90;78.50
29031;DHT22;16122;50.236;11.734;2024-03-23T05:12:01;16.90;78.50
29031;DHT22;16122;50.236;11.734;2024-03-23T05:14:28;16.90;78.50
29031;DHT22;16122;50.236;11.734;2024-03-23T05:16:55;17.10;78.60
29031;DHT22;16122;50.236;11.734;2024-03-23T05:19:21;16.90;78.50
29031;DHT22;16122;50.236;11.734;2024-03-23T05:21:49;16.90;78.30
29031;DHT22;16122;50.236;11.734;2024-03-23T05:24:15;16.90;78.10
29031;DHT22;16122;50.236;11.734;2024-03-23T05:26:41;17.00;78.20
29031;DHT22;16122;50.236;11.734;2024-03-23T05:29:06;16.90;78.00
29031;DHT22;16122;50.236;11.734;2024-03-23T05:31:36;17.00;78.10
29031;DHT22;16122;50.236;11.734;2024-03-23T05:34:03;16.90;77.80
29031;DHT22;16122;50.236;11.734;2024-03-23T05:36:29;17.10;77.90
29031;DHT22;16122;50.236;11.734;2024-03-23T05:38:55;17.00;77.80
29031;DHT22;16122;50.236;11.734;2024-03-23T05:41:20;17.00;77.80
29031;DHT22;16122;50.236;11.734;2024-03-23T05:43:48;17.00;77.70
29031;DHT22;16122;50.236;11.734;2024-03-23T05:46:13;17.00;78.10
29031;DHT22;16122;50.236;11.734;2024-03-23T05:48:39;16.90;77.70
29031;DHT22;16122;50.236;11.734;2024-03-23T05:51:06;16.90;77.40
29031;DHT22;16122;50.236;11.734;2024-03-23T05:53:32;16.90;77.40
29031;DHT22;16122;50.236;11.734;2024-03-23T05:56:02;17.10;77.70
29031;DHT22;16122;50.236;11.734;2024-03-23T05:58:31;17.10;78.00
29031;DHT22;16122;50.236;11.734;2024-03-23T06:01:01;17.00;78.00
29031;DHT22;16122;50.236;11.734;2024-03-23T06:03:28;17.00;78.30
29031;DHT22;16122;50.236;11.734;2024-03-23T06:05:55;17.00;78.30
29031;DHT22;16122;50.236;11.734;2024-03-23T06:08:22;17.10;78.40
29031;DHT22;16122;50.236;11.734;2024-03-23T06:10:48;17.00;78.40
29031;DHT22;16122;50.236;11.734;2024-03-23T06:13:14;17.00;78.40
29031;DHT22;16122;50.236;11.734;2024-03-23T06:15:40;17.00;78.30
29031;DHT22;16122;50.236;11.734;2024-03-23T06:18:06;17.00;78.60
29031;DHT22;16122;50.236;11.734;2024-03-23T06:20:33;17.00;78.80
29031;DHT22;16122;50.236;11.734;2024-03-23T06:23:00;17.00;78.60
29031;DHT22;16122;50.236;11.734;2024-03-23T06:25:26;17.10;78.80
29031;DHT22;16122;50.236;11.734;2024-03-23T06:27:52;17.00;78.70
29031;DHT22;16122;50.236;11.734;2024-03-23T06:30:18;17.10;78.90
29031;DHT22;16122;50.236;11.734;2024-03-23T06:32:44;17.20;78.80
29031;DHT22;16122;50.236;11.734;2024-03-23T06:35:10;17.10;78.40
29031;DHT22;16122;50.236;11.734;2024-03-23T06:37:36;17.20;78.70
29031;DHT22;16122;50.236;11.734;2024-03-23T06:40:02;17.10;78.80
29031;DHT22;16122;50.236;11.734;2024-03-23T06:42:30;17.10;78.80
29031;DHT22;16122;50.236;11.734;2024-03-23T06:44:56;17.20;79.20
29031;DHT22;16122;50.236;11.734;2024-03-23T06:47:22;17.20;79.40
29031;DHT22;16122;50.236;11.734;2024-03-23T06:49:48;17.20;79.70
29031;DHT22;16122;50.236;11.734;2024-03-23T06:52:13;17.10;80.00
29031;DHT22;16122;50.236;11.734;2024-03-23T06:54:39;17.10;79.80
29031;DHT22;16122;50.236;11.734;2024-03-23T06:57:05;17.10;79.90
29031;DHT22;16122;50.236;11.734;2024-03-23T06:59:31;17.10;79.60
29031;DHT22;16122;50.236;11.734;2024-03-23T07:01:57;17.20;79.60
29031;DHT22;16122;50.236;11.734;2024-03-23T07:04:22;17.30;80.00
29031;DHT22;16122;50.236;11.734;2024-03-23T07:06:48;17.10;80.00
29031;DHT22;16122;50.236;11.734;2024-03-23T07:09:14;17.10;79.70
29031;DHT22;16122;50.236;11.734;2024-03-23T07:11:40;17.10;79.40
29031;DHT22;16122;50.236;11.734;2024-03-23T07:14:05;17.10;79.50
29031;DHT22;16122;50.236;11.734;2024-03-23T07:16:31;17.10;79.00
29031;DHT22;16122;50.236;11.734;2024-03-23T07:18:57;17.30;79.10
29031;DHT22;16122;50.236;11.734;2024-03-23T07:21:24;17.10;78.50
29031;DHT22;16122;50.236;11.734;2024-03-23T07:23:50;17.10;77.90
29031;DHT22;16122;50.236;11.734;2024-03-23T07:26:15;17.10;78.50
29031;DHT22;16122;50.236;11.734;2024-03-23T07:28:42;17.10;77.80
29031;DHT22;16122;50.236;11.734;2024-03-23T07:31:11;17.20;77.90
29031;DHT22;16122;50.236;11.734;2024-03-23T07:33:41;17.20;78.00
29031;DHT22;16122;50.236;11.734;2024-03-23T07:36:07;17.20;78.20
29031;DHT22;16122;50.236;11.734;2024-03-23T07:38:33;17.10;78.00
29031;DHT22;16122;50.236;11.734;2024-03-23T07:41:09;17.20;78.40
29031;DHT22;16122;50.236;11.734;2024-03-23T07:43:39;17.10;79.30
29031;DHT22;16122;50.236;11.734;2024-03-23T07:46:06;17.10;79.90
29031;DHT22;16122;50.236;11.734;2024-03-23T07:48:32;17.10;80.30
29031;DHT22;16122;50.236;11.734;2024-03-23T07:51:09;17.10;80.70
29031;DHT22;16122;50.236;11.734;2024-03-23T07:53:36;17.20;80.90
29031;DHT22;16122;50.236;11.734;2024-03-23T07:58:30;17.20;81.00
29031;DHT22;16122;50.236;11.734;2024-03-23T08:01:01;17.00;80.90
29031;DHT22;16122;50.236;11.734;2024-03-23T08:03:29;17.10;81.30
29031;DHT22;16122;50.236;11.734;2024-03-23T08:05:54;17.00;81.30
29031;DHT22;16122;50.236;11.734;2024-03-23T08:08:21;17.10;81.70
29031;DHT22;16122;50.236;11.734;2024-03-23T08:10:51;17.00;81.80
29031;DHT22;16122;50.236;11.734;2024-03-23T08:13:17;17.10;81.90
29031;DHT22;16122;50.236;11.734;2024-03-23T08:15:44;17.20;82.10
29031;DHT22;16122;50.236;11.734;2024-03-23T08:18:11;17.00;81.90
29031;DHT22;16122;50.236;11.734;2024-03-23T08:20:37;17.10;82.00
29031;DHT22;16122;50.236;11.734;2024-03-23T08:23:05;17.10;81.90
29031;DHT22;16122;50.236;11.734;2024-03-23T08:25:32;17.20;82.90
29031;DHT22;16122;50.236;11.734;2024-03-23T08:27:58;17.10;82.00
29031;DHT22;16122;50.236;11.734;2024-03-23T08:30:24;17.10;82.20
29031;DHT22;16122;50.236;11.734;2024-03-23T08:32:50;17.10;82.30
29031;DHT22;16122;50.236;11.734;2024-03-23T08:35:16;17.00;81.70
29031;DHT22;16122;50.236;11.734;2024-03-23T08:37:41;17.10;81.50
29031;DHT22;16122;50.236;11.734;2024-03-23T08:40:08;17.00;81.10
29031;DHT22;16122;50.236;11.734;2024-03-23T08:42:34;17.00;81.10
29031;DHT22;16122;50.236;11.734;2024-03-23T08:45:00;17.10;81.40
29031;DHT22;16122;50.236;11.734;2024-03-23T08:47:26;17.20;81.30
29031;DHT22;16122;50.236;11.734;2024-03-23T08:49:51;17.00;81.20
29031;DHT22;16122;50.236;11.734;2024-03-23T08:52:17;17.00;81.10
29031;DHT22;16122;50.236;11.734;2024-03-23T08:54:46;17.10;81.10
29031;DHT22;16122;50.236;11.734;2024-03-23T08:57:12;17.00;80.80
29031;DHT22;16122;50.236;11.734;2024-03-23T08:59:38;17.00;80.60
29031;DHT22;16122;50.236;11.734;2024-03-23T09:02:05;17.10;80.70
29031;DHT22;16122;50.236;11.734;2024-03-23T09:04:31;17.00;80.20
29031;DHT22;16122;50.236;11.734;2024-03-23T09:06:57;17.00;80.40
29031;DHT22;16122;50.236;11.734;2024-03-23T09:09:24;17.00;80.10
29031;DHT22;16122;50.236;11.734;2024-03-23T09:11:51;17.00;80.30
29031;DHT22;16122;50.236;11.734;2024-03-23T09:14:17;17.10;80.30
29031;DHT22;16122;50.236;11.734;2024-03-23T09:16:43;17.10;80.40
29031;DHT22;16122;50.236;11.734;2024-03-23T09:19:08;17.00;80.40
29031;DHT22;16122;50.236;11.734;2024-03-23T09:21:34;16.90;80.00
29031;DHT22;16122;50.236;11.734;2024-03-23T09:24:00;16.90;79.50
29031;DHT22;16122;50.236;11.734;2024-03-23T09:26:26;16.90;79.80
29031;DHT22;16122;50.236;11.734;2024-03-23T09:28:52;17.10;79.70
29031;DHT22;16122;50.236;11.734;2024-03-23T09:31:17;16.90;79.80
29031;DHT22;16122;50.236;11.734;2024-03-23T09:33:43;16.90;80.00
29031;DHT22;16122;50.236;11.734;2024-03-23T09:36:09;16.90;80.40
29031;DHT22;16122;50.236;11.734;2024-03-23T09:38:35;16.90;80.30
29031;DHT22;16122;50.236;11.734;2024-03-23T09:41:07;16.90;80.50
29031;DHT22;16122;50.236;11.734;2024-03-23T09:43:34;16.90;80.50
29031;DHT22;16122;50.236;11.734;2024-03-23T09:46:01;16.90;80.40
29031;DHT22;16122;50.236;11.734;2024-03-23T09:48:28;17.00;80.60
29031;DHT22;16122;50.236;11.734;2024-03-23T09:50:54;16.90;80.90
29031;DHT22;16122;50.236;11.734;2024-03-23T09:53:20;17.00;81.40
29031;DHT22;16122;50.236;11.734;2024-03-23T09:55:45;16.80;81.20
29031;DHT22;16122;50.236;11.734;2024-03-23T09:58:16;17.00;81.70
29031;DHT22;16122;50.236;11.734;2024-03-23T10:00:42;16.80;81.50
29031;DHT22;16122;50.236;11.734;2024-03-23T10:03:08;16.90;81.70
29031;DHT22;16122;50.236;11.734;2024-03-23T10:05:37;17.00;82.10
29031;DHT22;16122;50.236;11.734;2024-03-23T10:10:45;16.90;81.30
29031;DHT22;16122;50.236;11.734;2024-03-23T10:13:11;17.00;81.00
29031;DHT22;16122;50.236;11.734;2024-03-23T10:15:55;16.90;81.00
29031;DHT22;16122;50.236;11.734;2024-03-23T10:18:21;16.90;81.20
29031;DHT22;16122;50.236;11.734;2024-03-23T10:20:51;16.90;81.20
29031;DHT22;16122;50.236;11.734;2024-03-23T10:23:18;16.90;81.40
29031;DHT22;16122;50.236;11.734;2024-03-23T10:25:44;16.90;82.40
29031;DHT22;16122;50.236;11.734;2024-03-23T10:28:11;16.90;81.50
29031;DHT22;16122;50.236;11.734;2024-03-23T10:30:37;16.90;81.40
29031;DHT22;16122;50.236;11.734;2024-03-23T10:33:10;16.90;81.50
29031;DHT22;16122;50.236;11.734;2024-03-23T10:35:37;17.00;81.70
29031;DHT22;16122;50.236;11.734;2024-03-23T10:38:07;17.00;81.80
29031;DHT22;16122;50.236;11.734;2024-03-23T10:40:36;16.90;82.00
29031;DHT22;16122;50.236;11.734;2024-03-23T10:43:06;17.00;82.10
29031;DHT22;16122;50.236;11.734;2024-03-23T10:45:34;17.00;82.10
29031;DHT22;16122;50.236;11.734;2024-03-23T10:47:59;17.00;81.80
29031;DHT22;16122;50.236;11.734;2024-03-23T10:50:25;16.90;81.60
29031;DHT22;16122;50.236;11.734;2024-03-23T10:52:53;17.00;81.30
29031;DHT22;16122;50.236;11.734;2024-03-23T10:55:19;17.00;80.60
29031;DHT22;16122;50.236;11.734;2024-03-23T10:57:51;17.00;80.30
29031;DHT22;16122;50.236;11.734;2024-03-23T11:00:18;17.00;79.30
29031;DHT22;16122;50.236;11.734;2024-03-23T11:02:47;17.00;79.20
29031;DHT22;16122;50.236;11.734;2024-03-23T11:05:29;17.00;79.40
29031;DHT22;16122;50.236;11.734;2024-03-23T11:07:56;17.10;79.50
29031;DHT22;16122;50.236;11.734;2024-03-23T11:10:26;17.10;79.20
29031;DHT22;16122;50.236;11.734;2024-03-23T11:12:53;17.00;79.80
29031;DHT22;16122;50.236;11.734;2024-03-23T11:15:19;17.10;80.00
29031;DHT22;16122;50.236;11.734;2024-03-23T11:18:04;17.00;79.80
29031;DHT22;16122;50.236;11.734;2024-03-23T11:20:32;17.10;80.30
29031;DHT22;16122;50.236;11.734;2024-03-23T11:22:58;17.10;80.50
29031;DHT22;16122;50.236;11.734;2024-03-23T11:25:26;17.10;80.70
29031;DHT22;16122;50.236;11.734;2024-03-23T11:27:53;17.10;80.70
29031;DHT22;16122;50.236;11.734;2024-03-23T11:30:21;17.20;80.50
29031;DHT22;16122;50.236;11.734;2024-03-23T11:32:49;17.10;80.50
29031;DHT22;16122;50.236;11.734;2024-03-23T11:35:30;17.00;79.70
29031;DHT22;16122;50.236;11.734;2024-03-23T11:40:27;17.20;79.00
29031;DHT22;16122;50.236;11.734;2024-03-23T11:42:58;17.10;78.60
29031;DHT22;16122;50.236;11.734;2024-03-23T11:45:24;17.10;78.50
29031;DHT22;16122;50.236;11.734;2024-03-23T11:48:04;17.10;78.80
29031;DHT22;16122;50.236;11.734;2024-03-23T11:50:30;17.20;79.50
29031;DHT22;16122;50.236;11.734;2024-03-23T11:53:17;17.20;79.80
29031;DHT22;16122;50.236;11.734;2024-03-23T11:58:10;17.10;81.30
29031;DHT22;16122;50.236;11.734;2024-03-23T12:00:36;17.20;83.20
29031;DHT22;16122;50.236;11.734;2024-03-23T12:03:03;17.20;83.70
29031;DHT22;16122;50.236;11.734;2024-03-23T12:05:29;17.20;84.10
29031;DHT22;16122;50.236;11.734;2024-03-23T12:07:56;17.20;84.90
29031;DHT22;16122;50.236;11.734;2024-03-23T12:10:40;17.20;84.70
29031;DHT22;16122;50.236;11.734;2024-03-23T12:13:06;17.30;85.10
29031;DHT22;16122;50.236;11.734;2024-03-23T12:15:32;17.20;86.00
29031;DHT22;16122;50.236;11.734;2024-03-23T12:18:08;17.30;86.90
29031;DHT22;16122;50.236;11.734;2024-03-23T12:20:34;17.20;87.00
29031;DHT22;16122;50.236;11.734;2024-03-23T12:23:07;17.30;87.50
29031;DHT22;16122;50.236;11.734;2024-03-23T12:25:34;17.20;87.70
29031;DHT22;16122;50.236;11.734;2024-03-23T12:28:00;17.30;88.10
29031;DHT22;16122;50.236;11.734;2024-03-23T12:30:26;17.30;88.40
29031;DHT22;16122;50.236;11.734;2024-03-23T12:32:52;17.30;88.20
29031;DHT22;16122;50.236;11.734;2024-03-23T12:35:19;17.30;88.10
29031;DHT22;16122;50.236;11.734;2024-03-23T12:37:44;17.30;88.10
29031;DHT22;16122;50.236;11.734;2024-03-23T12:40:10;17.30;88.10
29031;DHT22;16122;50.236;11.734;2024-03-23T12:42:36;17.30;87.30
29031;DHT22;16122;50.236;11.734;2024-03-23T12:45:03;17.30;87.50
29031;DHT22;16122;50.236;11.734;2024-03-23T12:47:32;17.30;87.40
29031;DHT22;16122;50.236;11.734;2024-03-23T12:49:58;17.30;86.80
29031;DHT22;16122;50.236;11.734;2024-03-23T12:52:24;17.30;86.50
29031;DHT22;16122;50.236;11.734;2024-03-23T12:54:57;17.40;86.40
29031;DHT22;16122;50.236;11.734;2024-03-23T12:57:26;17.30;85.90
29031;DHT22;16122;50.236;11.734;2024-03-23T12:59:52;17.40;85.70
29031;DHT22;16122;50.236;11.734;2024-03-23T13:02:21;17.40;86.10
29031;DHT22;16122;50.236;11.734;2024-03-23T13:04:52;17.30;86.30
29031;DHT22;16122;50.236;11.734;2024-03-23T13:07:19;17.40;86.90
29031;DHT22;16122;50.236;11.734;2024-03-23T13:09:45;17.30;86.00
29031;DHT22;16122;50.236;11.734;2024-03-23T13:12:11;17.30;86.40
29031;DHT22;16122;50.236;11.734;2024-03-23T13:14:38;17.30;86.20
29031;DHT22;16122;50.236;11.734;2024-03-23T13:17:05;17.30;86.30
29031;DHT22;16122;50.236;11.734;2024-03-23T13:19:31;17.30;86.30
29031;DHT22;16122;50.236;11.734;2024-03-23T13:21:58;17.40;85.80
29031;DHT22;16122;50.236;11.734;2024-03-23T13:24:24;17.50;86.00
29031;DHT22;16122;50.236;11.734;2024-03-23T13:26:51;17.30;86.20
29031;DHT22;16122;50.236;11.734;2024-03-23T13:29:17;17.40;86.30
29031;DHT22;16122;50.236;11.734;2024-03-23T13:31:43;17.30;86.40
29031;DHT22;16122;50.236;11.734;2024-03-23T13:34:09;17.40;86.30
29031;DHT22;16122;50.236;11.734;2024-03-23T13:36:35;17.30;86.30
29031;DHT22;16122;50.236;11.734;2024-03-23T13:39:02;17.40;86.50
29031;DHT22;16122;50.236;11.734;2024-03-23T13:41:32;17.40;86.60
29031;DHT22;16122;50.236;11.734;2024-03-23T13:43:57;17.30;87.20
29031;DHT22;16122;50.236;11.734;2024-03-23T13:46:23;17.40;86.60
29031;DHT22;16122;50.236;11.734;2024-03-23T13:48:49;17.30;86.60
29031;DHT22;16122;50.236;11.734;2024-03-23T13:51:15;17.30;86.70
29031;DHT22;16122;50.236;11.734;2024-03-23T13:53:40;17.30;86.70
29031;DHT22;16122;50.236;11.734;2024-03-23T13:56:08;17.40;87.00
29031;DHT22;16122;50.236;11.734;2024-03-23T13:58:33;17.30;86.90
29031;DHT22;16122;50.236;11.734;2024-03-23T14:01:00;17.30;87.50
29031;DHT22;16122;50.236;11.734;2024-03-23T14:03:26;17.40;87.10
29031;DHT22;16122;50.236;11.734;2024-03-23T14:05:58;17.30;87.10
29031;DHT22;16122;50.236;11.734;2024-03-23T14:08:23;17.40;87.00
29031;DHT22;16122;50.236;11.734;2024-03-23T14:10:49;17.30;86.40
29031;DHT22;16122;50.236;11.734;2024-03-23T14:13:15;17.40;86.90
29031;DHT22;16122;50.236;11.734;2024-03-23T14:15:41;17.30;86.70
29031;DHT22;16122;50.236;11.734;2024-03-23T14:18:07;17.30;86.60
29031;DHT22;16122;50.236;11.734;2024-03-23T14:20:33;17.30;86.70
29031;DHT22;16122;50.236;11.734;2024-03-23T14:23:00;17.40;86.60
29031;DHT22;16122;50.236;11.734;2024-03-23T14:25:26;17.30;86.30
29031;DHT22;16122;50.236;11.734;2024-03-23T14:27:54;17.30;86.10
29031;DHT22;16122;50.236;11.734;2024-03-23T14:30:20;17.30;86.20
29031;DHT22;16122;50.236;11.734;2024-03-23T14:32:46;17.30;86.80
29031;DHT22;16122;50.236;11.734;2024-03-23T14:35:12;17.30;86.60
29031;DHT22;16122;50.236;11.734;2024-03-23T14:37:38;17.50;86.60
29031;DHT22;16122;50.236;11.734;2024-03-23T14:40:04;17.30;86.10
29031;DHT22;16122;50.236;11.734;2024-03-23T14:42:30;17.50;86.10
29031;DHT22;16122;50.236;11.734;2024-03-23T14:44:59;17.30;85.80
29031;DHT22;16122;50.236;11.734;2024-03-23T14:47:25;17.40;86.90
29031;DHT22;16122;50.236;11.734;2024-03-23T14:49:53;17.30;87.90
29031;DHT22;16122;50.236;11.734;2024-03-23T14:52:19;17.30;88.40
29031;DHT22;16122;50.236;11.734;2024-03-23T14:54:45;17.30;89.50
29031;DHT22;16122;50.236;11.734;2024-03-23T14:57:12;17.50;90.00
29031;DHT22;16122;50.236;11.734;2024-03-23T14:59:38;17.40;90.10
29031;DHT22;16122;50.236;11.734;2024-03-23T15:02:04;17.40;90.50
29031;DHT22;16122;50.236;11.734;2024-03-23T15:04:30;17.40;90.10
29031;DHT22;16122;50.236;11.734;2024-03-23T15:06:56;17.50;90.10
29031;DHT22;16122;50.236;11.734;2024-03-23T15:09:22;17.40;90.30
29031;DHT22;16122;50.236;11.734;2024-03-23T15:11:48;17.50;90.30
29031;DHT22;16122;50.236;11.734;2024-03-23T15:14:13;17.40;90.30
29031;DHT22;16122;50.236;11.734;2024-03-23T15:16:39;17.40;90.40
29031;DHT22;16122;50.236;11.734;2024-03-23T15:19:05;17.40;90.20
29031;DHT22;16122;50.236;11.734;2024-03-23T15:21:34;17.40;90.00
29031;DHT22;16122;50.236;11.734;2024-03-23T15:23:59;17.40;89.20
29031;DHT22;16122;50.236;11.734;2024-03-23T15:26:25;17.40;89.00
29031;DHT22;16122;50.236;11.734;2024-03-23T15:28:51;17.40;88.80
29031;DHT22;16122;50.236;11.734;2024-03-23T15:31:23;17.50;89.30
29031;DHT22;16122;50.236;11.734;2024-03-23T15:33:49;17.40;89.60
29031;DHT22;16122;50.236;11.734;2024-03-23T15:36:15;17.40;89.70
29031;DHT22;16122;50.236;11.734;2024-03-23T15:38:41;17.50;89.90
29031;DHT22;16122;50.236;11.734;2024-03-23T15:41:08;17.40;89.80
29031;DHT22;16122;50.236;11.734;2024-03-23T15:43:34;17.30;89.50
29031;DHT22;16122;50.236;11.734;2024-03-23T15:46:04;17.50;89.70
29031;DHT22;16122;50.236;11.734;2024-03-23T15:48:31;17.30;89.20
29031;DHT22;16122;50.236;11.734;2024-03-23T15:50:58;17.30;89.20
29031;DHT22;16122;50.236;11.734;2024-03-23T15:53:25;17.30;88.90
29031;DHT22;16122;50.236;11.734;2024-03-23T15:55:55;17.30;88.80
29031;DHT22;16122;50.236;11.734;2024-03-23T15:58:21;17.30;88.40
29031;DHT22;16122;50.236;11.734;2024-03-23T16:00:55;17.30;87.80
29031;DHT22;16122;50.236;11.734;2024-03-23T16:03:21;17.30;87.80
29031;DHT22;16122;50.236;11.734;2024-03-23T16:05:55;17.30;88.10
29031;DHT22;16122;50.236;11.734;2024-03-23T16:08:21;17.30;87.70
29031;DHT22;16122;50.236;11.734;2024-03-23T16:10:47;17.30;87.40
29031;DHT22;16122;50.236;11.734;2024-03-23T16:13:13;17.40;88.30
29031;DHT22;16122;50.236;11.734;2024-03-23T16:15:39;17.30;86.90
29031;DHT22;16122;50.236;11.734;2024-03-23T16:18:05;17.20;86.70